Time;durP1;ratioP1;P1;durP2;ratioP2;P2;SDS_P1;SDS_P2;PMS_P1;PMS_P2;Temp;Humidity;BMP_temperature;BMP_pressure;BME280_temperature;BME280_humidity;BME280_pressure;Samples;Min_cycle;Max_cycle;Signal;HPM_P1;HPM_P2
2023/05/02 00:01:53;;;;;;;;;;;;;;;7.90;57.87;101036.38;107238;1260;124630;-84
2023/05/02 00:04:22;;;;;;;;;;;;;;;7.88;57.94;101035.75;107272;1257;75357;-84
2023/05/02 00:06:50;;;;;;;;;;;;;;;7.86;58.00;101034.30;107751;1256;64832;-82
2023/05/02 00:09:20;;;;;;;;;;;;;;;7.86;58.09;101034.26;107766;1256;124975;-85
2023/05/02 00:11:47;;;;;;;;;;;;;;;7.85;58.29;101031.45;107756;1256;61355;-84
2023/05/02 00:14:23;;;;;;;;;;;;;;;7.85;58.28;101030.23;107604;1260;124548;-83
2023/05/02 00:16:51;;;;;;;;;;;;;;;7.83;58.40;101028.56;107530;1256;261943;-82
2023/05/02 00:19:18;;;;;;;;;;;;;;;7.83;58.43;101023.31;108749;1256;124895;-82
2023/05/02 00:21:49;;;;;;;;;;;;;;;7.83;58.51;101024.55;108797;1256;72374;-82
2023/05/02 00:24:17;;;;;;;;;;;;;;;7.81;58.51;101019.77;108604;1260;60319;-82
2023/05/02 00:26:44;;;;;;;;;;;;;;;7.79;58.49;101015.68;107325;1262;124592;-82
2023/05/02 00:29:11;;;;;;;;;;;;;;;7.78;58.51;101018.59;107536;1261;75127;-82
2023/05/02 00:31:39;;;;;;;;;;;;;;;7.74;58.53;101013.36;108469;1256;124923;-82
2023/05/02 00:34:06;;;;;;;;;;;;;;;7.70;58.68;101010.93;107497;1256;72189;-82
2023/05/02 00:36:34;;;;;;;;;;;;;;;7.68;58.80;101009.63;107297;1257;60516;-84
2023/05/02 00:39:02;;;;;;;;;;;;;;;7.66;58.93;101003.77;107418;1259;124679;-83
2023/05/02 00:41:32;;;;;;;;;;;;;;;7.64;59.11;101001.05;107677;1262;75853;-83
2023/05/02 00:43:59;;;;;;;;;;;;;;;7.62;59.17;100998.89;107502;1260;64450;-81
2023/05/02 00:46:25;;;;;;;;;;;;;;;7.58;59.27;100994.73;107422;1263;73223;-81
2023/05/02 00:48:52;;;;;;;;;;;;;;;7.56;59.35;100992.02;107205;1256;61789;-81
2023/05/02 00:51:19;;;;;;;;;;;;;;;7.54;59.45;100987.40;107321;1256;125167;-82
2023/05/02 00:53:46;;;;;;;;;;;;;;;7.52;59.51;100985.55;107749;1260;74051;-81
2023/05/02 00:56:14;;;;;;;;;;;;;;;7.52;59.51;100985.90;107303;1257;124540;-81
2023/05/02 00:58:41;;;;;;;;;;;;;;;7.50;59.55;100983.73;107512;1256;72829;-81
2023/05/02 01:01:11;;;;;;;;;;;;;;;7.48;59.65;100979.45;107580;1257;124599;-82
2023/05/02 01:03:41;;;;;;;;;;;;;;;7.45;59.64;100981.61;107622;1260;61126;-82
2023/05/02 01:06:11;;;;;;;;;;;;;;;7.41;59.76;100979.02;107603;1259;74571;-82
2023/05/02 01:08:39;;;;;;;;;;;;;;;7.38;59.88;100982.40;107662;1262;124824;-82
2023/05/02 01:11:13;;;;;;;;;;;;;;;7.35;59.96;100978.78;108469;1256;72508;-84
2023/05/02 01:13:41;;;;;;;;;;;;;;;7.32;59.94;100973.06;107692;1256;125276;-84
2023/05/02 01:16:08;;;;;;;;;;;;;;;7.30;60.05;100973.50;107677;1257;61440;-81
2023/05/02 01:18:36;;;;;;;;;;;;;;;7.28;60.14;100973.77;107581;1256;73719;-82
2023/05/02 01:21:09;;;;;;;;;;;;;;;7.24;60.11;100969.59;107476;1256;124505;-84
2023/05/02 01:23:46;;;;;;;;;;;;;;;7.21;60.19;100969.97;107853;1260;72748;-85
2023/05/02 01:26:20;;;;;;;;;;;;;;;7.18;60.27;100969.54;107371;1256;124584;-82
2023/05/02 01:28:48;;;;;;;;;;;;;;;7.17;60.22;100971.73;107744;1257;62912;-81
2023/05/02 01:31:15;;;;;;;;;;;;;;;7.16;60.31;100972.05;107850;1257;125472;-82
2023/05/02 01:33:43;;;;;;;;;;;;;;;7.15;60.34;100970.77;107932;1257;67511;-81
2023/05/02 01:36:11;;;;;;;;;;;;;;;7.14;60.43;100970.38;107683;1257;73456;-81
2023/05/02 01:38:39;;;;;;;;;;;;;;;7.12;60.43;100964.16;107566;1256;124928;-82
2023/05/02 01:41:06;;;;;;;;;;;;;;;7.10;60.44;100958.52;107349;1262;62066;-82
2023/05/02 01:43:33;;;;;;;;;;;;;;;7.11;60.65;100959.59;107431;1260;124562;-81
2023/05/02 01:46:01;;;;;;;;;;;;;;;7.10;60.71;100956.98;107863;1256;66160;-81
2023/05/02 01:48:28;;;;;;;;;;;;;;;7.09;60.70;100955.34;107510;1257;70861;-82
2023/05/02 01:50:55;;;;;;;;;;;;;;;7.09;60.76;100951.48;107316;1262;124100;-82
2023/05/02 01:53:22;;;;;;;;;;;;;;;7.10;60.84;100951.52;107449;1260;62031;-82
2023/05/02 01:55:49;;;;;;;;;;;;;;;7.10;60.89;100950.30;107248;1257;124192;-84
2023/05/02 01:58:16;;;;;;;;;;;;;;;7.11;60.92;100949.64;107155;1257;67579;-81
2023/05/02 02:00:44;;;;;;;;;;;;;;;7.13;60.92;100949.21;107787;1262;71818;-82
2023/05/02 02:03:11;;;;;;;;;;;;;;;7.14;60.83;100945.60;107825;1257;125430;-82
2023/05/02 02:05:38;;;;;;;;;;;;;;;7.16;60.79;100938.52;107806;1261;60367;-82
2023/05/02 02:08:06;;;;;;;;;;;;;;;7.18;60.98;100934.95;107753;1262;124150;-82
2023/05/02 02:10:36;;;;;;;;;;;;;;;7.19;60.89;100932.92;107741;1257;65433;-82
2023/05/02 02:13:05;;;;;;;;;;;;;;;7.22;60.97;100931.06;107410;1258;124293;-84
2023/05/02 02:15:38;;;;;;;;;;;;;;;7.24;61.00;100929.05;107426;1260;61850;-84
2023/05/02 02:18:11;;;;;;;;;;;;;;;7.27;60.88;100928.30;107239;1257;60308;-82
2023/05/02 02:20:51;;;;;;;;;;;;;;;7.30;60.98;100925.84;107348;1261;124243;-84
2023/05/02 02:23:19;;;;;;;;;;;;;;;7.34;60.96;100921.80;107546;1256;67087;-82
2023/05/02 02:25:46;;;;;;;;;;;;;;;7.36;61.03;100917.89;107694;1261;125674;-82
2023/05/02 02:28:13;;;;;;;;;;;;;;;7.39;61.11;100920.98;107682;1258;60886;-82
2023/05/02 02:30:42;;;;;;;;;;;;;;;7.42;61.20;100924.06;107961;1260;62070;-83
2023/05/02 02:33:15;;;;;;;;;;;;;;;7.45;61.21;100925.60;107635;1261;124352;-83
2023/05/02 02:35:43;;;;;;;;;;;;;;;7.47;61.23;100926.52;107406;1259;67652;-81
2023/05/02 02:38:14;;;;;;;;;;;;;;;7.50;61.29;100924.89;107400;1257;124438;-82
2023/05/02 02:40:45;;;;;;;;;;;;;;;7.52;61.24;100925.68;107700;1260;62143;-84
2023/05/02 02:43:35;;;;;;;;;;;;;;;7.55;61.26;100921.24;107452;1262;124314;-83
2023/05/02 02:46:08;;;;;;;;;;;;;;;7.57;61.17;100922.04;107942;1257;76306;-82
2023/05/02 02:48:55;;;;;;;;;;;;;;;7.58;61.29;100922.97;107729;1262;66207;-82
2023/05/02 02:51:25;;;;;;;;;;;;;;;7.59;61.22;100923.85;107414;1259;124107;-82
2023/05/02 02:53:57;;;;;;;;;;;;;;;7.59;61.23;100917.59;107352;1257;62330;-82
2023/05/02 02:56:45;;;;;;;;;;;;;;;7.59;61.24;100909.90;107447;1261;124604;-84
2023/05/02 02:59:18;;;;;;;;;;;;;;;7.60;61.31;100908.52;107363;1260;75261;-84
2023/05/02 03:01:53;;;;;;;;;;;;;;;7.60;61.27;100903.63;107340;1257;124772;-85
2023/05/02 03:04:20;;;;;;;;;;;;;;;7.59;61.37;100904.83;107423;1262;71198;-82
2023/05/02 03:06:47;;;;;;;;;;;;;;;7.59;61.39;100906.73;107722;1257;61089;-81
2023/05/02 03:09:18;;;;;;;;;;;;;;;7.57;61.53;100906.67;107858;1260;124666;-84
2023/05/02 03:11:45;;;;;;;;;;;;;;;7.56;61.56;100902.10;107520;1258;75483;-81
2023/05/02 03:14:12;;;;;;;;;;;;;;;7.54;61.56;100899.55;107435;1257;124340;-84
2023/05/02 03:16:45;;;;;;;;;;;;;;;7.55;61.73;100902.73;107482;1256;73252;-84
2023/05/02 03:19:12;;;;;;;;;;;;;;;7.53;61.75;100901.80;107107;1258;124203;-84
2023/05/02 03:21:40;;;;;;;;;;;;;;;7.57;61.73;100902.83;107388;1260;60799;-84
2023/05/02 03:24:10;;;;;;;;;;;;;;;7.61;61.76;100904.56;107128;1261;73960;-84
2023/05/02 03:26:37;;;;;;;;;;;;;;;7.67;61.83;100901.30;107339;1257;124203;-82
2023/05/02 03:29:04;;;;;;;;;;;;;;;7.71;61.81;100902.65;107362;1260;72181;-84
2023/05/02 03:31:31;;;;;;;;;;;;;;;7.74;61.82;100907.33;107464;1258;124260;-84
2023/05/02 03:34:01;;;;;;;;;;;;;;;7.78;61.81;100913.08;107642;1260;60752;-84
2023/05/02 03:36:28;;;;;;;;;;;;;;;7.80;61.80;100909.84;107552;1259;74495;-83
2023/05/02 03:38:59;;;;;;;;;;;;;;;7.82;61.71;100906.59;108332;1257;124481;-84
2023/05/02 03:41:26;;;;;;;;;;;;;;;7.83;61.63;100908.19;107586;1260;71012;-83
2023/05/02 03:43:53;;;;;;;;;;;;;;;7.86;61.72;100909.73;107489;1257;124317;-81
2023/05/02 03:46:20;;;;;;;;;;;;;;;7.91;61.70;100907.99;107186;1261;62709;-86
2023/05/02 03:48:48;;;;;;;;;;;;;;;7.97;61.76;100907.71;107456;1256;75573;-86
2023/05/02 03:51:21;;;;;;;;;;;;;;;8.04;61.73;100910.56;107416;1256;124162;-86
2023/05/02 03:53:53;;;;;;;;;;;;;;;8.09;61.66;100907.77;107092;1257;71416;-85
2023/05/02 03:56:20;;;;;;;;;;;;;;;8.13;61.61;100909.86;107032;1257;124071;-86
2023/05/02 03:58:47;;;;;;;;;;;;;;;8.18;61.47;100913.19;107556;1260;61272;-86
2023/05/02 04:01:15;;;;;;;;;;;;;;;8.23;61.49;100907.09;107443;1262;75286;-85
2023/05/02 04:03:58;;;;;;;;;;;;;;;8.33;61.53;100908.33;107236;1257;65148;-85
2023/05/02 04:06:25;;;;;;;;;;;;;;;8.45;61.53;100906.84;107581;1261;72535;-82
2023/05/02 04:08:52;;;;;;;;;;;;;;;8.54;61.47;100910.52;107681;1257;124279;-81
2023/05/02 04:11:19;;;;;;;;;;;;;;;8.63;61.34;100910.48;107744;1262;60734;-82
2023/05/02 04:13:46;;;;;;;;;;;;;;;8.72;61.16;100909.92;107463;1258;125320;-82
2023/05/02 04:16:13;;;;;;;;;;;;;;;8.84;61.11;100913.82;107625;1257;67560;-82
2023/05/02 04:18:40;;;;;;;;;;;;;;;8.95;61.06;100912.48;107658;1262;71305;-82
2023/05/02 04:21:10;;;;;;;;;;;;;;;9.09;60.99;100915.74;107984;1258;125071;-82
2023/05/02 04:23:37;;;;;;;;;;;;;;;9.23;60.80;100918.30;107708;1258;61946;-82
2023/05/02 04:26:05;;;;;;;;;;;;;;;9.31;60.58;100914.36;107622;1260;124551;-82
2023/05/02 04:28:32;;;;;;;;;;;;;;;9.39;60.42;100920.39;107871;1257;67119;-81
2023/05/02 04:30:59;;;;;;;;;;;;;;;9.47;60.16;100918.21;107912;1257;72084;-81
2023/05/02 04:33:26;;;;;;;;;;;;;;;9.55;60.07;100918.11;107598;1257;124720;-81
2023/05/02 04:35:53;;;;;;;;;;;;;;;9.64;60.01;100920.15;107903;1258;60300;-84
2023/05/02 04:38:20;;;;;;;;;;;;;;;9.76;59.97;100922.27;107742;1257;124556;-84
2023/05/02 04:40:49;;;;;;;;;;;;;;;9.88;59.95;100925.77;107549;1257;67887;-84
2023/05/02 04:43:16;;;;;;;;;;;;;;;10.00;59.90;100930.89;107595;1256;124505;-84
2023/05/02 04:45:44;;;;;;;;;;;;;;;10.14;59.85;100929.73;107793;1257;62054;-84
2023/05/02 04:48:12;;;;;;;;;;;;;;;10.31;59.80;100934.45;107711;1258;61075;-84
2023/05/02 04:50:40;;;;;;;;;;;;;;;10.49;59.68;100935.52;107440;1258;125025;-84
2023/05/02 04:53:07;;;;;;;;;;;;;;;10.64;59.35;100933.11;107450;1256;65742;-84
2023/05/02 04:55:34;;;;;;;;;;;;;;;10.78;59.10;100932.25;107600;1256;124880;-85
2023/05/02 04:58:01;;;;;;;;;;;;;;;10.89;58.69;100927.64;107547;1257;62356;-84
2023/05/02 05:00:28;;;;;;;;;;;;;;;11.03;58.45;100923.61;107230;1257;61977;-82
2023/05/02 05:02:55;;;;;;;;;;;;;;;11.22;58.22;100920.42;107257;1259;124648;-82
2023/05/02 05:05:23;;;;;;;;;;;;;;;11.47;58.18;100924.52;107268;1257;65846;-84
2023/05/02 05:07:51;;;;;;;;;;;;;;;11.77;57.89;100927.70;107380;1262;125076;-82
2023/05/02 05:10:18;;;;;;;;;;;;;;;11.98;57.50;100928.38;107840;1264;60299;-83
2023/05/02 05:12:45;;;;;;;;;;;;;;;12.20;57.29;100923.57;107890;1257;61475;-82
2023/05/02 05:15:12;;;;;;;;;;;;;;;12.55;57.19;100922.52;107600;1260;125592;-83
2023/05/02 05:17:41;;;;;;;;;;;;;;;12.88;56.61;100915.05;107237;1257;64646;-83
2023/05/02 05:20:09;;;;;;;;;;;;;;;13.12;56.18;100911.41;107359;1257;125259;-83
2023/05/02 05:22:40;;;;;;;;;;;;;;;13.32;55.95;100914.25;107451;1256;60462;-83
2023/05/02 05:25:07;;;;;;;;;;;;;;;13.59;55.61;100915.20;107101;1258;124597;-83
2023/05/02 05:27:34;;;;;;;;;;;;;;;13.81;55.35;100919.05;107665;1257;75328;-83
2023/05/02 05:30:02;;;;;;;;;;;;;;;14.05;54.99;100914.97;107522;1256;65830;-83
2023/05/02 05:32:29;;;;;;;;;;;;;;;14.20;54.59;100915.35;107117;1258;124849;-83
2023/05/02 05:34:58;;;;;;;;;;;;;;;14.38;54.34;100924.05;107358;1257;60285;-83
2023/05/02 05:37:25;;;;;;;;;;;;;;;14.63;54.20;100924.72;107464;1256;125356;-83
2023/05/02 05:39:52;;;;;;;;;;;;;;;14.97;53.93;100921.73;107445;1260;74177;-83
2023/05/02 05:42:19;;;;;;;;;;;;;;;15.30;53.40;100914.95;107517;1263;65742;-83
2023/05/02 05:44:59;;;;;;;;;;;;;;;15.60;52.76;100917.29;107247;1257;124887;-83
2023/05/02 05:47:26;;;;;;;;;;;;;;;15.87;52.09;100919.79;107241;1256;62085;-83
2023/05/02 05:49:53;;;;;;;;;;;;;;;16.07;51.71;100924.16;107231;1257;124614;-83
2023/05/02 05:52:21;;;;;;;;;;;;;;;16.24;51.39;100923.73;107421;1262;73941;-83
2023/05/02 05:54:49;;;;;;;;;;;;;;;16.34;50.90;100923.04;107626;1257;66160;-82
2023/05/02 05:57:17;;;;;;;;;;;;;;;16.43;50.65;100923.61;107273;1256;125443;-83
2023/05/02 05:59:45;;;;;;;;;;;;;;;16.54;50.35;100926.66;107554;1261;62085;-84
2023/05/02 06:02:12;;;;;;;;;;;;;;;16.69;50.14;100928.12;107743;1257;124778;-83
2023/05/02 06:04:39;;;;;;;;;;;;;;;16.84;49.71;100932.43;107670;1258;75202;-85
2023/05/02 06:07:06;;;;;;;;;;;;;;;16.94;49.41;100934.77;107585;1257;124604;-85
2023/05/02 06:09:33;;;;;;;;;;;;;;;16.95;48.99;100936.19;107762;1257;72397;-84
2023/05/02 06:12:01;;;;;;;;;;;;;;;16.89;48.83;100937.23;107948;1257;60954;-84
2023/05/02 06:14:28;;;;;;;;;;;;;;;16.78;48.44;100937.19;107585;1257;124470;-84
2023/05/02 06:16:57;;;;;;;;;;;;;;;16.64;48.34;100942.80;108109;1257;75605;-84
2023/05/02 06:19:24;;;;;;;;;;;;;;;16.53;48.28;100945.62;107983;1257;124638;-83
2023/05/02 06:21:59;;;;;;;;;;;;;;;16.40;48.21;100948.75;107850;1257;71145;-93
2023/05/02 06:24:25;;;;;;;;;;;;;;;16.28;48.04;100948.88;107960;1256;60161;-86
2023/05/02 06:26:52;;;;;;;;;;;;;;;16.20;48.03;100951.32;107810;1257;124711;-84
2023/05/02 06:29:20;;;;;;;;;;;;;;;16.18;47.96;100956.09;107830;1256;75585;-87
2023/05/02 06:31:53;;;;;;;;;;;;;;;16.15;47.75;100960.15;107961;1260;124932;-86
2023/05/02 06:34:20;;;;;;;;;;;;;;;16.13;47.74;100961.55;107970;1256;72526;-86
2023/05/02 06:36:52;;;;;;;;;;;;;;;16.12;47.59;100962.08;107956;1260;61151;-82
2023/05/02 06:39:19;;;;;;;;;;;;;;;16.12;47.34;100969.16;107810;1257;124522;-83
2023/05/02 06:41:47;;;;;;;;;;;;;;;16.10;47.19;100971.98;107953;1260;74160;-87
2023/05/02 06:44:15;;;;;;;;;;;;;;;16.07;47.07;100976.03;107734;1256;124392;-85
2023/05/02 06:46:42;;;;;;;;;;;;;;;16.03;47.00;100977.25;107720;1257;71586;-87
2023/05/02 06:49:09;;;;;;;;;;;;;;;16.01;46.91;100982.55;107660;1256;124589;-85
2023/05/02 06:51:36;;;;;;;;;;;;;;;16.02;46.80;100985.03;108065;1257;60383;-88
2023/05/02 06:54:03;;;;;;;;;;;;;;;16.02;46.69;100984.84;108200;1257;75523;-88
2023/05/02 06:56:30;;;;;;;;;;;;;;;16.00;46.74;100982.35;108024;1257;125185;-87
2023/05/02 06:58:57;;;;;;;;;;;;;;;16.04;46.73;100987.34;107913;1258;70126;-87
2023/05/02 07:01:24;;;;;;;;;;;;;;;16.06;46.74;100986.64;107808;1256;124533;-87
2023/05/02 07:03:51;;;;;;;;;;;;;;;16.10;46.66;100989.52;107891;1257;62140;-87
2023/05/02 07:06:19;;;;;;;;;;;;;;;16.12;46.53;100990.58;107794;1256;74176;-90
2023/05/02 07:08:46;;;;;;;;;;;;;;;16.16;46.63;100994.13;107557;1259;124425;-88
2023/05/02 07:11:13;;;;;;;;;;;;;;;16.21;46.57;100998.77;107638;1256;71847;-87
2023/05/02 07:13:40;;;;;;;;;;;;;;;16.23;46.42;101000.20;107652;1256;124651;-87
2023/05/02 07:16:07;;;;;;;;;;;;;;;16.25;46.37;101006.41;107736;1257;60773;-86
2023/05/02 07:18:35;;;;;;;;;;;;;;;16.24;46.28;101008.53;108023;1257;74389;-87
2023/05/02 07:21:02;;;;;;;;;;;;;;;16.25;46.37;101014.38;108521;1256;124685;-88
2023/05/02 07:23:29;;;;;;;;;;;;;;;16.28;46.27;101016.17;107812;1256;71925;-88
2023/05/02 07:25:56;;;;;;;;;;;;;;;16.31;46.20;101020.62;107667;1256;124823;-90
2023/05/02 07:28:23;;;;;;;;;;;;;;;16.39;46.12;101021.55;107867;1256;60741;-89
2023/05/02 07:30:51;;;;;;;;;;;;;;;16.49;46.12;101016.10;107963;1257;74264;-87
2023/05/02 07:33:18;;;;;;;;;;;;;;;16.62;46.00;101022.89;107689;1257;124429;-91
2023/05/02 07:35:45;;;;;;;;;;;;;;;16.73;45.85;101028.80;107872;1256;71033;-86
2023/05/02 07:38:12;;;;;;;;;;;;;;;16.83;45.72;101031.52;107869;1256;125094;-90
2023/05/02 07:40:39;;;;;;;;;;;;;;;16.97;45.68;101038.48;108150;1256;61262;-84
2023/05/02 07:43:08;;;;;;;;;;;;;;;17.17;45.58;101036.95;107901;1257;124761;-86
2023/05/02 07:45:38;;;;;;;;;;;;;;;17.40;45.32;101039.13;107954;1257;65231;-89
2023/05/02 07:48:05;;;;;;;;;;;;;;;17.62;45.30;101042.52;108059;1256;72423;-87
2023/05/02 07:50:31;;;;;;;;;;;;;;;17.88;45.10;101046.63;107910;1258;124698;-84
2023/05/02 07:52:59;;;;;;;;;;;;;;;18.08;44.75;101048.05;107948;1257;60447;-84
2023/05/02 07:55:26;;;;;;;;;;;;;;;18.23;44.54;101048.55;107926;1256;124717;-85
2023/05/02 07:57:53;;;;;;;;;;;;;;;18.36;44.27;101050.30;108050;1256;67109;-84
2023/05/02 08:00:20;;;;;;;;;;;;;;;18.46;43.87;101052.42;108253;1256;71866;-85
2023/05/02 08:02:47;;;;;;;;;;;;;;;18.55;43.73;101055.95;107945;1256;124666;-84
2023/05/02 08:05:14;;;;;;;;;;;;;;;18.61;43.56;101054.85;107821;1256;61885;-84
2023/05/02 08:07:41;;;;;;;;;;;;;;;18.64;43.20;101057.88;107880;1256;124834;-88
2023/05/02 08:10:09;;;;;;;;;;;;;;;18.64;43.06;101063.55;108227;1256;67579;-87
2023/05/02 08:12:39;;;;;;;;;;;;;;;18.67;42.97;101059.83;108304;1257;72821;-92
2023/05/02 08:15:07;;;;;;;;;;;;;;;18.69;42.83;101063.01;108112;1259;124672;-88
2023/05/02 08:17:34;;;;;;;;;;;;;;;18.68;42.85;101064.96;107931;1257;62237;-88
2023/05/02 08:20:01;;;;;;;;;;;;;;;18.59;42.62;101071.56;108021;1257;124959;-91
2023/05/02 08:22:35;;;;;;;;;;;;;;;18.47;42.78;101068.40;108153;1257;67014;-94
2023/05/02 08:25:02;;;;;;;;;;;;;;;18.35;42.63;101071.09;107766;1257;73448;-89
2023/05/02 08:27:34;;;;;;;;;;;;;;;18.20;42.55;101070.40;107444;1258;124502;-92
2023/05/02 08:30:05;;;;;;;;;;;;;;;18.09;42.51;101072.19;107227;1259;62066;-91
2023/05/02 08:32:41;;;;;;;;;;;;;;;18.02;42.49;101076.46;107157;1257;124586;-87
2023/05/02 08:35:15;;;;;;;;;;;;;;;17.97;42.44;101075.92;106969;1257;65604;-86
2023/05/02 08:37:42;;;;;;;;;;;;;;;17.91;42.45;101067.95;106926;1258;124937;-88
2023/05/02 08:40:22;;;;;;;;;;;;;;;17.92;42.53;101069.72;107091;1257;61914;-86
2023/05/02 08:42:49;;;;;;;;;;;;;;;17.94;42.59;101072.55;107149;1257;61686;-85
2023/05/02 08:45:18;;;;;;;;;;;;;;;17.97;42.49;101071.13;107529;1257;124540;-85
2023/05/02 08:47:46;;;;;;;;;;;;;;;17.98;42.36;101075.58;107776;1257;66782;-88
2023/05/02 08:50:22;;;;;;;;;;;;;;;17.97;42.23;101078.24;107649;1257;125030;-86
2023/05/02 08:52:55;;;;;;;;;;;;;;;17.97;42.27;101077.52;107683;1257;61949;-86
2023/05/02 08:55:26;;;;;;;;;;;;;;;17.95;42.28;101078.23;107299;1257;124804;-85
2023/05/02 08:57:56;;;;;;;;;;;;;;;17.96;42.20;101079.67;107655;1262;75851;-85
2023/05/02 09:00:23;;;;;;;;;;;;;;;17.96;41.87;101086.59;107639;1257;66343;-86
2023/05/02 09:03:12;;;;;;;;;;;;;;;17.89;41.09;101086.40;107586;1258;125066;-85
2023/05/02 09:05:41;;;;;;;;;;;;;;;17.78;40.43;101091.16;107880;1257;60510;-85
2023/05/02 09:08:08;;;;;;;;;;;;;;;17.71;40.20;101094.16;107368;1257;124565;-83
2023/05/02 09:10:44;;;;;;;;;;;;;;;17.67;40.16;101097.52;107772;1257;74158;-85
2023/05/02 09:13:30;;;;;;;;;;;;;;;17.66;40.14;101100.56;107357;1260;124606;-87
2023/05/02 09:16:01;;;;;;;;;;;;;;;17.67;40.29;101101.62;107569;1257;72743;-89
2023/05/02 09:18:35;;;;;;;;;;;;;;;17.69;40.14;101104.81;108110;1259;62169;-84
2023/05/02 09:21:09;;;;;;;;;;;;;;;17.66;39.37;101110.66;107758;1257;125131;-84
2023/05/02 09:23:46;;;;;;;;;;;;;;;17.56;39.35;101116.69;107762;1257;74318;-92
2023/05/02 09:26:20;;;;;;;;;;;;;;;17.55;39.10;101114.91;107391;1257;124658;-89
2023/05/02 09:28:47;;;;;;;;;;;;;;;17.59;38.91;101117.75;107409;1256;73235;-86
2023/05/02 09:31:37;;;;;;;;;;;;;;;17.66;38.76;101124.67;107346;1257;124902;-87
2023/05/02 09:34:14;;;;;;;;;;;;;;;17.85;38.70;101122.95;107420;1257;60491;-84
2023/05/02 09:36:44;;;;;;;;;;;;;;;18.12;38.59;101123.34;107445;1259;76270;-85
2023/05/02 09:39:38;;;;;;;;;;;;;;;18.37;38.37;101123.15;106998;1260;124717;-85
2023/05/02 09:42:05;;;;;;;;;;;;;;;18.68;38.30;101129.49;107379;1256;71432;-84
2023/05/02 09:44:36;;;;;;;;;;;;;;;18.86;38.05;101131.43;107222;1257;124436;-84
2023/05/02 09:47:05;;;;;;;;;;;;;;;19.02;37.95;101135.64;107298;1256;62194;-84
2023/05/02 09:49:44;;;;;;;;;;;;;;;19.21;37.94;101141.08;107049;1257;124710;-85
2023/05/02 09:52:12;;;;;;;;;;;;;;;19.43;37.51;101150.40;107175;1256;65158;-84
2023/05/02 09:54:39;;;;;;;;;;;;;;;19.55;37.03;101153.73;107317;1257;72733;-85
2023/05/02 09:57:07;;;;;;;;;;;;;;;19.60;36.69;101156.19;107357;1257;125011;-84
2023/05/02 09:59:33;;;;;;;;;;;;;;;19.61;36.76;101158.49;107687;1257;60964;-84
2023/05/02 10:02:09;;;;;;;;;;;;;;;19.63;37.02;101165.08;106966;1264;124821;-84
2023/05/02 10:04:38;;;;;;;;;;;;;;;19.77;37.08;101170.72;107209;1258;67565;-84
2023/05/02 10:07:16;;;;;;;;;;;;;;;19.80;37.13;101172.65;107191;1257;72788;-84
2023/05/02 10:09:44;;;;;;;;;;;;;;;19.76;37.09;101171.98;107605;1256;62197;-85
2023/05/02 10:12:15;;;;;;;;;;;;;;;19.80;37.23;101179.08;107628;1258;61632;-84
2023/05/02 10:14:50;;;;;;;;;;;;;;;19.84;37.07;101180.83;107486;1256;124487;-84
2023/05/02 10:17:20;;;;;;;;;;;;;;;19.79;37.61;101183.52;107769;1256;67036;-84
2023/05/02 10:20:03;;;;;;;;;;;;;;;19.84;37.91;101191.16;107733;1256;124610;-84
2023/05/02 10:22:38;;;;;;;;;;;;;;;19.85;38.05;101188.83;107980;1256;62124;-84
2023/05/02 10:25:07;;;;;;;;;;;;;;;19.86;38.31;101198.27;107802;1256;62096;-87
2023/05/02 10:27:36;;;;;;;;;;;;;;;19.80;38.57;101204.36;107130;1257;125078;-85
2023/05/02 10:30:06;;;;;;;;;;;;;;;19.61;38.70;101211.91;106888;1257;66831;-85
2023/05/02 10:32:33;;;;;;;;;;;;;;;19.25;39.30;101215.44;107242;1256;125254;-86
2023/05/02 10:35:04;;;;;;;;;;;;;;;19.11;39.96;101215.84;107394;1258;62062;-86
2023/05/02 10:37:34;;;;;;;;;;;;;;;19.10;40.44;101219.40;107204;1257;125278;-84
2023/05/02 10:40:01;;;;;;;;;;;;;;;19.10;40.77;101226.34;107601;1257;75225;-84
2023/05/02 10:42:28;;;;;;;;;;;;;;;18.99;41.00;101229.56;107904;1256;65586;-84
2023/05/02 10:44:56;;;;;;;;;;;;;;;18.86;41.29;101226.91;107673;1258;124505;-84
2023/05/02 10:47:24;;;;;;;;;;;;;;;18.80;41.60;101233.49;107538;1256;62572;-87
2023/05/02 10:49:54;;;;;;;;;;;;;;;18.77;41.91;101232.59;107352;1260;124712;-84
2023/05/02 10:52:24;;;;;;;;;;;;;;;18.77;41.93;101235.42;107540;1256;74173;-84
2023/05/02 10:54:51;;;;;;;;;;;;;;;18.87;42.13;101238.83;107476;1256;66477;-85
2023/05/02 10:57:18;;;;;;;;;;;;;;;19.00;41.86;101243.24;107536;1257;125023;-85
2023/05/02 10:59:45;;;;;;;;;;;;;;;19.02;41.79;101242.00;107815;1256;60645;-85
2023/05/02 11:02:29;;;;;;;;;;;;;;;19.01;41.77;101248.05;107783;1256;124576;-86
2023/05/02 11:05:03;;;;;;;;;;;;;;;18.99;41.85;101255.70;107394;1257;75348;-86
2023/05/02 11:07:31;;;;;;;;;;;;;;;19.00;41.86;101255.35;107232;1257;125246;-85
2023/05/02 11:10:21;;;;;;;;;;;;;;;18.96;41.88;101264.06;107778;1257;71407;-86
2023/05/02 11:12:48;;;;;;;;;;;;;;;18.83;41.83;101272.08;107364;1256;60405;-85
2023/05/02 11:15:27;;;;;;;;;;;;;;;18.79;42.06;101279.35;107442;1256;124487;-85
2023/05/02 11:17:58;;;;;;;;;;;;;;;18.75;42.07;101281.13;107448;1257;74228;-85
2023/05/02 11:20:26;;;;;;;;;;;;;;;18.74;42.21;101286.64;107281;1258;124814;-86
2023/05/02 11:22:53;;;;;;;;;;;;;;;18.81;42.39;101287.02;107228;1263;71830;-84
2023/05/02 11:25:33;;;;;;;;;;;;;;;19.01;42.40;101293.41;107424;1262;125241;-84
2023/05/02 11:28:00;;;;;;;;;;;;;;;19.19;42.27;101294.45;107404;1262;61317;-84
2023/05/02 11:30:42;;;;;;;;;;;;;;;19.42;42.42;101301.15;107594;1257;73509;-85
2023/05/02 11:33:10;;;;;;;;;;;;;;;19.64;42.23;101304.83;107544;1257;124583;-85
2023/05/02 11:35:37;;;;;;;;;;;;;;;19.77;42.27;101315.85;107749;1256;72707;-85
2023/05/02 11:38:08;;;;;;;;;;;;;;;19.95;42.24;101322.73;107660;1257;124459;-85
2023/05/02 11:40:35;;;;;;;;;;;;;;;20.15;42.29;101325.11;107598;1257;61700;-85
2023/05/02 11:43:15;;;;;;;;;;;;;;;20.34;42.03;101333.92;107792;1263;74230;-85
2023/05/02 11:45:43;;;;;;;;;;;;;;;20.28;41.84;101343.77;107810;1262;65749;-85
2023/05/02 11:48:11;;;;;;;;;;;;;;;20.19;41.87;101354.14;107963;1256;72935;-85
2023/05/02 11:50:49;;;;;;;;;;;;;;;20.11;41.89;101357.92;107704;1257;124691;-85
2023/05/02 11:53:22;;;;;;;;;;;;;;;19.98;41.89;101360.83;107719;1257;61282;-84
2023/05/02 11:55:50;;;;;;;;;;;;;;;20.00;42.10;101370.09;107826;1256;124778;-85
2023/05/02 11:58:31;;;;;;;;;;;;;;;20.03;41.96;101374.70;107908;1257;65549;-85
2023/05/02 12:00:58;;;;;;;;;;;;;;;19.97;41.96;101382.56;107592;1261;72739;-84
2023/05/02 12:03:29;;;;;;;;;;;;;;;19.78;41.95;101390.10;107601;1258;124813;-84
2023/05/02 12:05:56;;;;;;;;;;;;;;;19.61;42.35;101392.08;108219;1257;60026;-86
2023/05/02 12:08:27;;;;;;;;;;;;;;;19.62;42.64;101403.29;107799;1256;124926;-86
2023/05/02 12:10:54;;;;;;;;;;;;;;;19.74;42.88;101412.37;107437;1257;65925;-85
2023/05/02 12:13:22;;;;;;;;;;;;;;;19.82;42.87;101421.27;107413;1256;124680;-85
2023/05/02 12:15:49;;;;;;;;;;;;;;;19.62;42.81;101421.10;106864;1262;460647;-85
2023/05/02 12:18:23;;;;;;;;;;;;;;;19.20;42.98;101429.48;107291;1257;62099;-85
2023/05/02 12:20:50;;;;;;;;;;;;;;;18.85;43.55;101432.13;107161;1264;124487;-85
2023/05/02 12:23:21;;;;;;;;;;;;;;;18.50;43.66;101439.11;107552;1257;67133;-84
2023/05/02 12:25:48;;;;;;;;;;;;;;;18.06;44.07;101442.31;107824;1256;125260;-84
2023/05/02 12:28:18;;;;;;;;;;;;;;;17.69;44.60;101440.10;107720;1256;62231;-84
2023/05/02 12:30:50;;;;;;;;;;;;;;;17.53;45.30;101444.59;107953;1257;60430;-86
2023/05/02 12:33:18;;;;;;;;;;;;;;;17.62;45.74;101450.52;107630;1259;124593;-84
2023/05/02 12:35:48;;;;;;;;;;;;;;;17.78;45.71;101455.60;107815;1256;67544;-84
2023/05/02 12:38:15;;;;;;;;;;;;;;;17.84;45.61;101461.52;107875;1257;124672;-84